Time;durP1;ratioP1;P1;durP2;ratioP2;P2;SDS_P1;SDS_P2;PMS_P1;PMS_P2;Temp;Humidity;BMP_temperature;BMP_pressure;BME280_temperature;BME280_humidity;BME280_pressure;Samples;Min_cycle;Max_cycle;Signal;HPM_P1;HPM_P2
2021/06/10 00:00:17;;;;;;;;;;;;;;;17.97;61.19;97170.34;5038745;28;20483;-66
2021/06/10 00:02:44;;;;;;;;;;;;;;;17.97;61.24;97165.06;5033632;28;19933;-66
2021/06/10 00:05:11;;;;;;;;;;;;;;;17.97;61.45;97172.13;5036993;28;19925;-66
2021/06/10 00:07:38;;;;;;;;;;;;;;;17.97;61.33;97174.78;5040613;28;19982;-66
2021/06/10 00:10:09;;;;;;;;;;;;;;;17.97;61.27;97172.97;5043560;28;19925;-66
2021/06/10 00:12:36;;;;;;;;;;;;;;;17.97;61.41;97166.88;5034932;28;19975;-66
2021/06/10 00:15:04;;;;;;;;;;;;;;;17.97;61.09;97178.25;5035880;28;20514;-66
2021/06/10 00:17:30;;;;;;;;;;;;;;;17.97;61.25;97170.34;5041357;28;19928;-65
2021/06/10 00:19:59;;;;;;;;;;;;;;;17.97;61.30;97172.97;5040065;28;19929;-66
2021/06/10 00:22:26;;;;;;;;;;;;;;;17.97;61.33;97170.34;5042543;28;19929;-66
2021/06/10 00:24:52;;;;;;;;;;;;;;;17.97;61.38;97172.97;5038340;28;19952;-66
2021/06/10 00:27:21;;;;;;;;;;;;;;;17.98;61.25;97171.94;5038365;28;19933;-66
2021/06/10 00:29:48;;;;;;;;;;;;;;;17.96;61.24;97173.97;5039675;28;19925;-66
2021/06/10 00:32:15;;;;;;;;;;;;;;;17.97;61.25;97170.34;5035173;28;19936;-66
2021/06/10 00:34:42;;;;;;;;;;;;;;;17.97;61.19;97172.97;5040777;28;19998;-66
2021/06/10 00:37:09;;;;;;;;;;;;;;;17.97;61.41;97174.78;5044785;28;20274;-66
2021/06/10 00:39:36;;;;;;;;;;;;;;;17.97;61.35;97172.97;5041152;28;19936;-66
2021/06/10 00:42:03;;;;;;;;;;;;;;;17.97;61.24;97172.13;5038423;28;19979;-66
2021/06/10 00:44:30;;;;;;;;;;;;;;;17.97;61.46;97172.13;5039243;28;20360;-66
2021/06/10 00:46:56;;;;;;;;;;;;;;;17.98;61.18;97174.56;5040722;28;20016;-66
2021/06/10 00:49:23;;;;;;;;;;;;;;;17.97;61.38;97175.59;5042578;28;19940;-66
2021/06/10 00:51:50;;;;;;;;;;;;;;;17.97;61.47;97175.59;5042780;28;20346;-66
2021/06/10 00:54:16;;;;;;;;;;;;;;;17.96;61.54;97171.34;5045671;28;19933;-66
2021/06/10 00:56:43;;;;;;;;;;;;;;;17.96;61.27;97173.97;5040846;28;19940;-66
2021/06/10 00:59:10;;;;;;;;;;;;;;;17.97;61.08;97180.03;5039711;28;20073;-66
2021/06/10 01:01:36;;;;;;;;;;;;;;;17.97;61.25;97175.59;5041034;28;19983;-66
2021/06/10 01:04:03;;;;;;;;;;;;;;;17.97;61.18;97180.03;5046297;28;19960;-66
2021/06/10 01:06:51;;;;;;;;;;;;;;;17.97;61.17;97175.59;5040726;28;19929;-66
2021/06/10 01:09:24;;;;;;;;;;;;;;;17.97;61.47;97177.41;5038386;28;20664;-66
2021/06/10 01:12:09;;;;;;;;;;;;;;;17.96;61.27;97181.06;5040920;28;19928;-66
2021/06/10 01:14:38;;;;;;;;;;;;;;;17.96;61.32;97179.22;5034381;28;19933;-66
2021/06/10 01:17:06;;;;;;;;;;;;;;;17.97;61.26;97183.50;5042197;28;19929;-66
2021/06/10 01:19:35;;;;;;;;;;;;;;;17.97;61.31;97180.88;5045561;28;20289;-66
2021/06/10 01:22:03;;;;;;;;;;;;;;;17.97;61.42;97175.59;5039575;28;19925;-66
2021/06/10 01:24:29;;;;;;;;;;;;;;;17.96;61.40;97179.22;5039337;28;19929;-66
2021/06/10 01:27:14;;;;;;;;;;;;;;;17.95;61.28;97177.63;5044152;28;19926;-66
2021/06/10 01:29:41;;;;;;;;;;;;;;;17.96;61.18;97173.97;5045105;28;19924;-66
2021/06/10 01:32:08;;;;;;;;;;;;;;;17.97;61.25;97174.78;5036939;28;19978;-66
2021/06/10 01:34:34;;;;;;;;;;;;;;;17.96;61.39;97166.06;5038417;28;19986;-66
2021/06/10 01:37:02;;;;;;;;;;;;;;;17.96;61.40;97163.44;5037505;28;19925;-66
2021/06/10 01:39:29;;;;;;;;;;;;;;;17.95;61.59;97167.09;5042462;28;19929;-66
2021/06/10 01:41:56;;;;;;;;;;;;;;;17.95;61.46;97167.09;5048088;28;19998;-66
2021/06/10 01:44:25;;;;;;;;;;;;;;;17.96;61.41;97167.91;5036089;28;19925;-66
2021/06/10 01:46:52;;;;;;;;;;;;;;;17.96;61.36;97157.38;5047029;28;20332;-66
2021/06/10 01:49:19;;;;;;;;;;;;;;;17.97;61.43;97158.97;5042738;28;19929;-66
2021/06/10 01:51:46;;;;;;;;;;;;;;;17.96;61.29;97158.16;5038061;28;20335;-66
2021/06/10 01:54:14;;;;;;;;;;;;;;;17.96;61.36;97157.38;5041949;28;19929;-66
2021/06/10 01:56:41;;;;;;;;;;;;;;;17.95;61.28;97161.00;5042112;28;19924;-66
2021/06/10 01:59:09;;;;;;;;;;;;;;;17.95;61.46;97158.34;5045650;28;19925;-66
2021/06/10 02:01:36;;;;;;;;;;;;;;;17.94;61.57;97149.66;5037174;28;20615;-66
2021/06/10 02:04:03;;;;;;;;;;;;;;;17.96;61.38;97152.09;5036262;28;19925;-66
2021/06/10 02:06:31;;;;;;;;;;;;;;;17.95;61.36;97146.03;5046306;28;19925;-66
2021/06/10 02:08:57;;;;;;;;;;;;;;;17.94;61.58;97144.38;5039329;28;19952;-66
2021/06/10 02:11:24;;;;;;;;;;;;;;;17.93;61.36;97137.50;5036777;28;19929;-66
2021/06/10 02:13:51;;;;;;;;;;;;;;;17.93;61.50;97148.06;5036120;28;20373;-66
2021/06/10 02:16:17;;;;;;;;;;;;;;;17.93;61.53;97148.06;5040835;28;19999;-66
2021/06/10 02:18:46;;;;;;;;;;;;;;;17.94;61.44;97139.13;5041862;28;19929;-66
2021/06/10 02:21:14;;;;;;;;;;;;;;;17.94;61.50;97149.66;5035631;28;19933;-66
2021/06/10 02:23:41;;;;;;;;;;;;;;;17.93;61.58;97140.16;5035707;28;20281;-66
2021/06/10 02:26:08;;;;;;;;;;;;;;;17.94;61.43;97143.59;5036804;28;19952;-66
2021/06/10 02:28:35;;;;;;;;;;;;;;;17.94;61.63;97133.06;5039677;28;19939;-66
2021/06/10 02:31:03;;;;;;;;;;;;;;;17.94;61.45;97139.13;5043415;28;19929;-66
2021/06/10 02:33:30;;;;;;;;;;;;;;;17.94;61.51;97138.31;5039729;28;19948;-66
2021/06/10 02:35:56;;;;;;;;;;;;;;;17.93;61.38;97142.78;5046517;28;19979;-66
2021/06/10 02:38:24;;;;;;;;;;;;;;;17.94;61.35;97148.84;5045132;28;20405;-66
2021/06/10 02:40:52;;;;;;;;;;;;;;;17.94;61.43;97143.59;5039636;28;20540;-66
2021/06/10 02:43:19;;;;;;;;;;;;;;;17.92;61.48;97140.34;5037340;28;20320;-66
2021/06/10 02:45:46;;;;;;;;;;;;;;;17.92;61.43;97146.41;5046813;28;20438;-66
2021/06/10 02:48:14;;;;;;;;;;;;;;;17.92;61.51;97149.06;5041853;28;20351;-66
2021/06/10 02:50:41;;;;;;;;;;;;;;;17.93;61.42;97141.94;5036072;28;19940;-66
2021/06/10 02:53:14;;;;;;;;;;;;;;;17.94;61.46;97143.59;5032337;28;19925;-66
2021/06/10 02:55:42;;;;;;;;;;;;;;;17.93;61.51;97148.06;5048293;28;19928;-66
2021/06/10 02:58:09;;;;;;;;;;;;;;;17.92;61.49;97146.41;5042679;28;19971;-66
2021/06/10 03:00:36;;;;;;;;;;;;;;;17.94;61.38;97154.13;5036500;28;20365;-66
2021/06/10 03:03:02;;;;;;;;;;;;;;;17.94;61.32;97154.13;5043839;28;19925;-66
2021/06/10 03:05:30;;;;;;;;;;;;;;;17.94;61.36;97157.56;5037209;28;19940;-65
2021/06/10 03:07:57;;;;;;;;;;;;;;;17.93;61.25;97158.59;5042068;28;19951;-65
2021/06/10 03:10:25;;;;;;;;;;;;;;;17.94;61.43;97152.28;5032761;28;19929;-66
2021/06/10 03:12:52;;;;;;;;;;;;;;;17.97;61.21;97148.44;5040132;28;19924;-66
2021/06/10 03:15:19;;;;;;;;;;;;;;;17.96;61.12;97152.09;5045775;28;19929;-66
2021/06/10 03:17:46;;;;;;;;;;;;;;;17.95;61.44;97151.28;5038292;28;19925;-66
2021/06/10 03:20:14;;;;;;;;;;;;;;;17.96;61.10;97155.53;5041093;28;20467;-66
2021/06/10 03:22:40;;;;;;;;;;;;;;;17.96;61.30;97158.16;5039934;28;19929;-66
2021/06/10 03:25:09;;;;;;;;;;;;;;;17.96;61.37;97163.44;5041977;28;20464;-66
2021/06/10 03:27:36;;;;;;;;;;;;;;;17.96;61.27;97162.63;5041040;28;19929;-66
2021/06/10 03:30:04;;;;;;;;;;;;;;;17.96;61.29;97166.06;5037285;28;19925;-66
2021/06/10 03:32:31;;;;;;;;;;;;;;;17.96;61.15;97160.78;5037126;28;19940;-66
2021/06/10 03:34:57;;;;;;;;;;;;;;;17.96;61.09;97163.44;5042739;28;19932;-66
2021/06/10 03:37:25;;;;;;;;;;;;;;;17.97;61.14;97158.97;5041739;28;19925;-66
2021/06/10 03:39:52;;;;;;;;;;;;;;;17.97;61.15;97154.53;5035312;28;20411;-66
2021/06/10 03:42:19;;;;;;;;;;;;;;;17.97;61.08;97154.53;5037809;28;19983;-66
2021/06/10 03:44:47;;;;;;;;;;;;;;;17.97;61.14;97162.44;5043690;28;20029;-66
2021/06/10 03:47:13;;;;;;;;;;;;;;;17.97;61.06;97159.81;5041920;28;19933;-66
2021/06/10 03:49:40;;;;;;;;;;;;;;;17.98;61.02;97160.59;5033743;28;19975;-66
2021/06/10 03:52:07;;;;;;;;;;;;;;;17.98;61.23;97163.25;5042598;28;19924;-66
2021/06/10 03:54:33;;;;;;;;;;;;;;;17.97;61.01;97159.81;5039459;28;19933;-66
2021/06/10 03:57:00;;;;;;;;;;;;;;;17.97;61.22;97158.97;5038177;28;19925;-66
2021/06/10 03:59:26;;;;;;;;;;;;;;;17.96;61.04;97158.16;5033957;28;20392;-66
2021/06/10 04:01:53;;;;;;;;;;;;;;;17.96;61.16;97162.63;5043776;28;19925;-66
2021/06/10 04:04:19;;;;;;;;;;;;;;;17.96;61.02;97168.69;5037174;28;19929;-66
2021/06/10 04:06:47;;;;;;;;;;;;;;;17.97;61.19;97170.34;5038467;28;20061;-66
2021/06/10 04:09:13;;;;;;;;;;;;;;;17.98;61.13;97165.88;5034200;28;19929;-66
2021/06/10 04:11:40;;;;;;;;;;;;;;;17.96;61.25;97173.97;5038404;28;19929;-66
2021/06/10 04:14:06;;;;;;;;;;;;;;;17.98;61.36;97176.41;5038936;28;19925;-66
2021/06/10 04:16:33;;;;;;;;;;;;;;;17.97;61.19;97172.13;5043897;28;20281;-66
2021/06/10 04:18:59;;;;;;;;;;;;;;;17.97;61.03;97175.59;5043326;28;20485;-66
2021/06/10 04:21:26;;;;;;;;;;;;;;;17.98;60.99;97179.84;5035843;28;20124;-66
2021/06/10 04:23:52;;;;;;;;;;;;;;;17.99;61.05;97180.66;5037196;28;19925;-66
2021/06/10 04:26:19;;;;;;;;;;;;;;;17.99;61.05;97180.66;5040327;28;19970;-66
2021/06/10 04:28:45;;;;;;;;;;;;;;;17.98;61.04;97182.47;5039263;28;19978;-66
2021/06/10 04:31:13;;;;;;;;;;;;;;;17.94;61.13;97183.91;5042901;28;19929;-66
2021/06/10 04:33:39;;;;;;;;;;;;;;;17.90;61.57;97177.41;5033966;28;19933;-66
2021/06/10 04:36:06;;;;;;;;;;;;;;;17.85;61.80;97178.03;5036930;28;19932;-66
2021/06/10 04:38:33;;;;;;;;;;;;;;;17.86;61.82;97186.72;5034352;28;19932;-66
2021/06/10 04:40:59;;;;;;;;;;;;;;;17.84;61.60;97168.50;5044084;28;19925;-66
2021/06/10 04:43:26;;;;;;;;;;;;;;;17.83;61.70;97173.97;5041055;28;19936;-66
2021/06/10 04:45:52;;;;;;;;;;;;;;;17.83;61.78;97173.97;5040212;28;19933;-66
2021/06/10 04:48:19;;;;;;;;;;;;;;;17.84;61.63;97170.31;5033870;28;19932;-66
2021/06/10 04:50:45;;;;;;;;;;;;;;;17.83;61.81;97168.72;5036925;28;19932;-66
2021/06/10 04:53:13;;;;;;;;;;;;;;;17.83;61.81;97180.03;5035211;28;20407;-66
2021/06/10 04:55:40;;;;;;;;;;;;;;;17.79;61.88;97176.16;5035624;28;19991;-66
2021/06/10 04:58:06;;;;;;;;;;;;;;;17.73;62.16;97178.78;5040945;28;19928;-66
2021/06/10 05:00:33;;;;;;;;;;;;;;;17.68;62.43;97177.56;5032158;28;19933;-66
2021/06/10 05:03:00;;;;;;;;;;;;;;;17.70;62.12;97172.91;5037854;28;19979;-66
2021/06/10 05:05:26;;;;;;;;;;;;;;;17.70;62.26;97172.91;5039737;28;19937;-66
2021/06/10 05:07:53;;;;;;;;;;;;;;;17.67;62.36;97165.44;5041650;28;19933;-66
2021/06/10 05:10:20;;;;;;;;;;;;;;;17.70;62.21;97172.13;5041964;28;19951;-66
2021/06/10 05:12:47;;;;;;;;;;;;;;;17.70;62.10;97172.91;5042036;28;19937;-66
2021/06/10 05:15:13;;;;;;;;;;;;;;;17.67;62.28;97173.34;5039297;28;20412;-66
2021/06/10 05:17:40;;;;;;;;;;;;;;;17.69;62.15;97176.56;5042382;28;19928;-67
2021/06/10 05:20:07;;;;;;;;;;;;;;;17.70;62.19;97180.00;5038154;28;19932;-66
2021/06/10 05:22:33;;;;;;;;;;;;;;;17.68;62.14;97167.03;5042099;28;20281;-66
2021/06/10 05:25:00;;;;;;;;;;;;;;;17.70;62.18;97170.28;5032016;28;19976;-66
2021/06/10 05:27:26;;;;;;;;;;;;;;;17.70;62.29;97164.22;5040703;28;19951;-67
2021/06/10 05:29:53;;;;;;;;;;;;;;;17.69;62.33;97168.69;5039018;28;19925;-66
2021/06/10 05:32:19;;;;;;;;;;;;;;;17.70;62.41;97177.38;5039265;28;19929;-65
2021/06/10 05:34:46;;;;;;;;;;;;;;;17.67;62.43;97175.97;5039112;28;20320;-66
2021/06/10 05:37:12;;;;;;;;;;;;;;;17.69;62.29;97181.00;5042346;28;20476;-67
2021/06/10 05:39:39;;;;;;;;;;;;;;;17.68;62.35;97177.56;5039137;28;20838;-67
2021/06/10 05:42:05;;;;;;;;;;;;;;;17.69;62.36;97181.84;5048820;28;19932;-67
2021/06/10 05:44:32;;;;;;;;;;;;;;;17.69;62.19;97179.22;5046604;28;19929;-67
2021/06/10 05:46:58;;;;;;;;;;;;;;;17.71;62.19;97192.16;5042104;28;19929;-67
2021/06/10 05:49:25;;;;;;;;;;;;;;;17.70;62.28;97190.53;5045968;28;19925;-67
2021/06/10 05:51:51;;;;;;;;;;;;;;;17.69;62.31;97191.53;5036717;28;19925;-66
2021/06/10 05:54:18;;;;;;;;;;;;;;;17.68;62.54;97189.94;5044580;28;19971;-66
2021/06/10 05:56:44;;;;;;;;;;;;;;;17.68;62.31;97198.63;5040759;28;20497;-66
2021/06/10 05:59:11;;;;;;;;;;;;;;;17.67;62.30;97193.56;5040976;28;19971;-66
2021/06/10 06:01:38;;;;;;;;;;;;;;;17.66;62.26;97190.13;5048673;28;19972;-66
2021/06/10 06:04:04;;;;;;;;;;;;;;;17.67;62.18;97190.94;5049632;28;19925;-67
2021/06/10 06:06:31;;;;;;;;;;;;;;;17.65;62.27;97191.16;5044553;28;19925;-67
2021/06/10 06:08:57;;;;;;;;;;;;;;;17.68;62.13;97193.38;5046473;28;19974;-66
2021/06/10 06:11:24;;;;;;;;;;;;;;;17.68;62.44;97197.84;5048797;28;19929;-66
2021/06/10 06:14:05;;;;;;;;;;;;;;;17.67;62.44;97202.28;5043103;28;19925;-66
2021/06/10 06:16:32;;;;;;;;;;;;;;;17.66;62.43;97192.75;5045032;28;19954;-66
2021/06/10 06:19:01;;;;;;;;;;;;;;;17.66;62.40;97200.66;5044574;28;19929;-66
2021/06/10 06:21:28;;;;;;;;;;;;;;;17.66;62.46;97200.66;5035918;28;19933;-66
2021/06/10 06:23:57;;;;;;;;;;;;;;;17.65;62.30;97201.69;5041923;28;19925;-66
2021/06/10 06:26:23;;;;;;;;;;;;;;;17.65;62.39;97211.38;5037754;28;19932;-66
2021/06/10 06:28:49;;;;;;;;;;;;;;;17.65;62.32;97206.13;5041694;28;19933;-66
2021/06/10 06:31:16;;;;;;;;;;;;;;;17.65;62.34;97209.59;5038288;28;19929;-66
2021/06/10 06:33:42;;;;;;;;;;;;;;;17.65;62.26;97209.59;5040606;28;19968;-66
2021/06/10 06:36:09;;;;;;;;;;;;;;;17.66;62.29;97211.19;5042121;28;20274;-67
2021/06/10 06:38:35;;;;;;;;;;;;;;;17.66;62.19;97207.75;5042964;28;20415;-66
2021/06/10 06:41:02;;;;;;;;;;;;;;;17.66;62.09;97207.75;5041457;28;19925;-65
2021/06/10 06:43:30;;;;;;;;;;;;;;;17.66;62.32;97215.66;5038908;28;19956;-66
2021/06/10 06:46:00;;;;;;;;;;;;;;;17.65;62.32;97214.84;5044273;28;19925;-66
2021/06/10 06:48:28;;;;;;;;;;;;;;;17.64;62.24;97221.09;5041962;28;19937;-66
2021/06/10 06:50:59;;;;;;;;;;;;;;;17.68;61.97;97217.06;5036394;28;19974;-67
2021/06/10 06:53:28;;;;;;;;;;;;;;;17.66;62.22;97215.66;5039116;28;20455;-70
2021/06/10 06:56:11;;;;;;;;;;;;;;;17.66;62.16;97215.66;5042492;28;20312;-66
2021/06/10 06:58:42;;;;;;;;;;;;;;;17.70;62.12;97217.69;5043251;28;19925;-65
2021/06/10 07:01:09;;;;;;;;;;;;;;;17.68;62.17;97214.44;5042193;28;19925;-65
2021/06/10 07:03:36;;;;;;;;;;;;;;;17.68;62.21;97214.44;5037318;28;19929;-65
2021/06/10 07:06:02;;;;;;;;;;;;;;;17.66;62.23;97211.19;5041270;28;19924;-65
2021/06/10 07:08:31;;;;;;;;;;;;;;;17.66;62.34;97216.44;5040335;28;19925;-65
2021/06/10 07:11:01;;;;;;;;;;;;;;;17.65;62.19;97217.47;5040911;28;20413;-65
2021/06/10 07:13:27;;;;;;;;;;;;;;;17.66;62.22;97219.09;5042766;28;22292;-65
2021/06/10 07:15:54;;;;;;;;;;;;;;;17.68;62.19;97213.63;5040401;28;19946;-65
2021/06/10 07:18:20;;;;;;;;;;;;;;;17.68;62.23;97219.69;5042435;28;20335;-65
2021/06/10 07:20:47;;;;;;;;;;;;;;;17.66;62.31;97221.72;5037123;28;19933;-65
2021/06/10 07:23:14;;;;;;;;;;;;;;;17.66;62.42;97218.28;5041707;28;19929;-66
2021/06/10 07:25:41;;;;;;;;;;;;;;;17.68;62.30;97217.06;5040653;28;19939;-66
2021/06/10 07:28:08;;;;;;;;;;;;;;;17.66;62.35;97213.81;5041685;28;19925;-66
2021/06/10 07:30:35;;;;;;;;;;;;;;;17.66;62.32;97213.00;5039948;28;20273;-66
2021/06/10 07:33:03;;;;;;;;;;;;;;;17.66;62.17;97216.44;5043155;28;20270;-66
2021/06/10 07:35:33;;;;;;;;;;;;;;;17.67;62.09;97226.00;5042550;28;20020;-66
2021/06/10 07:38:00;;;;;;;;;;;;;;;17.67;62.11;97220.72;5040604;28;19935;-66
2021/06/10 07:40:28;;;;;;;;;;;;;;;17.67;62.38;97220.72;5041449;28;19932;-66
2021/06/10 07:42:56;;;;;;;;;;;;;;;17.67;62.10;97222.53;5041450;28;19933;-66
2021/06/10 07:45:24;;;;;;;;;;;;;;;17.67;62.11;97226.00;5036549;28;19929;-66
2021/06/10 07:47:51;;;;;;;;;;;;;;;17.68;62.11;97224.97;5032888;28;19929;-66
2021/06/10 07:50:18;;;;;;;;;;;;;;;17.68;62.19;97219.69;5037148;28;19929;-66
2021/06/10 07:52:45;;;;;;;;;;;;;;;17.69;61.96;97223.97;5034011;28;19929;-66
2021/06/10 07:55:11;;;;;;;;;;;;;;;17.68;62.19;97227.59;5033429;28;20278;-66
2021/06/10 07:57:38;;;;;;;;;;;;;;;17.66;62.11;97221.72;5044948;28;19937;-66
2021/06/10 08:00:05;;;;;;;;;;;;;;;17.67;62.30;97222.53;5043884;28;19952;-66
2021/06/10 08:02:41;;;;;;;;;;;;;;;17.68;62.20;97217.06;5032716;28;19925;-66
2021/06/10 08:05:08;;;;;;;;;;;;;;;17.68;62.07;97219.69;5039196;28;20020;-66
2021/06/10 08:07:35;;;;;;;;;;;;;;;17.66;62.16;97219.09;5036612;28;19925;-66
2021/06/10 08:10:01;;;;;;;;;;;;;;;17.68;62.13;97219.69;5042574;28;20377;-66
2021/06/10 08:12:28;;;;;;;;;;;;;;;17.68;62.24;97218.91;5045934;28;19955;-66
2021/06/10 08:14:57;;;;;;;;;;;;;;;17.66;62.34;97215.66;5049013;28;20262;-66
2021/06/10 08:17:23;;;;;;;;;;;;;;;17.67;62.23;97212.81;5044763;28;19932;-69
2021/06/10 08:19:50;;;;;;;;;;;;;;;17.67;62.28;97215.47;5041724;28;19925;-67
2021/06/10 08:22:16;;;;;;;;;;;;;;;17.68;62.31;97217.06;5032028;28;19975;-67
2021/06/10 08:24:43;;;;;;;;;;;;;;;17.69;62.13;97209.97;5043757;28;20123;-66
2021/06/10 08:27:09;;;;;;;;;;;;;;;17.70;62.13;97215.03;5038355;28;19932;-66
2021/06/10 08:29:36;;;;;;;;;;;;;;;17.69;62.27;97216.06;5036983;28;20377;-66
2021/06/10 08:32:02;;;;;;;;;;;;;;;17.68;62.15;97219.69;5038463;28;19982;-66
2021/06/10 08:34:29;;;;;;;;;;;;;;;17.69;62.22;97212.59;5039799;28;19926;-66
2021/06/10 08:36:55;;;;;;;;;;;;;;;17.71;61.97;97207.94;5039610;28;19951;-66
2021/06/10 08:39:22;;;;;;;;;;;;;;;17.72;62.16;97214.03;5036612;28;19971;-66
2021/06/10 08:41:48;;;;;;;;;;;;;;;17.72;62.05;97208.78;5048876;28;19947;-66
2021/06/10 08:44:15;;;;;;;;;;;;;;;17.69;62.02;97208.16;5043915;28;19944;-66
2021/06/10 08:46:41;;;;;;;;;;;;;;;17.70;62.08;97211.59;5038361;28;19932;-66
2021/06/10 08:49:08;;;;;;;;;;;;;;;17.70;62.18;97211.59;5035606;28;19932;-66
2021/06/10 08:51:35;;;;;;;;;;;;;;;17.70;62.26;97212.41;5043637;28;19949;-66
2021/06/10 08:54:02;;;;;;;;;;;;;;;17.66;62.00;97199.84;5048498;28;19925;-66
2021/06/10 08:56:30;;;;;;;;;;;;;;;17.73;61.89;97200.66;5043637;28;20392;-66
2021/06/10 08:58:57;;;;;;;;;;;;;;;17.72;61.95;97204.31;5051536;28;19999;-66
2021/06/10 09:01:24;;;;;;;;;;;;;;;17.72;62.18;97211.41;5036964;28;19925;-66
2021/06/10 09:03:53;;;;;;;;;;;;;;;17.70;62.30;97207.16;5043175;28;19968;-67
2021/06/10 09:06:19;;;;;;;;;;;;;;;17.69;62.18;97216.06;5034858;28;20598;-67
2021/06/10 09:08:47;;;;;;;;;;;;;;;17.69;62.19;97210.81;5048409;28;20382;-67
2021/06/10 09:11:18;;;;;;;;;;;;;;;17.69;62.19;97212.59;5039529;28;20012;-66
2021/06/10 09:13:50;;;;;;;;;;;;;;;17.70;62.06;97204.50;5041424;28;19971;-67
2021/06/10 09:16:27;;;;;;;;;;;;;;;17.68;62.20;97206.53;5041434;28;20285;-66
2021/06/10 09:18:56;;;;;;;;;;;;;;;17.69;62.14;97209.97;5039242;28;20027;-67
2021/06/10 09:21:23;;;;;;;;;;;;;;;17.70;62.14;97212.41;5038069;28;19929;-67
2021/06/10 09:23:50;;;;;;;;;;;;;;;17.68;62.25;97209.16;5038194;28;20361;-66
2021/06/10 09:26:16;;;;;;;;;;;;;;;17.71;62.11;97202.69;5038176;28;19929;-66
2021/06/10 09:28:43;;;;;;;;;;;;;;;17.70;62.33;97207.16;5037169;28;19925;-67
2021/06/10 09:31:10;;;;;;;;;;;;;;;17.72;62.14;97208.78;5043050;28;19929;-67
2021/06/10 09:33:41;;;;;;;;;;;;;;;17.70;62.25;97215.03;5039275;28;19933;-66
2021/06/10 09:36:07;;;;;;;;;;;;;;;17.72;62.20;97216.69;5044471;28;19928;-66
2021/06/10 09:38:34;;;;;;;;;;;;;;;17.73;62.04;97221.72;5038847;28;19925;-67
2021/06/10 09:41:04;;;;;;;;;;;;;;;17.71;62.02;97207.94;5042212;28;19967;-67
2021/06/10 09:43:41;;;;;;;;;;;;;;;17.69;62.36;97213.44;5039668;28;20657;-67
2021/06/10 09:46:07;;;;;;;;;;;;;;;17.71;62.10;97215.84;5041884;28;19924;-67
2021/06/10 09:48:34;;;;;;;;;;;;;;;17.71;62.02;97202.69;5040416;28;20466;-67
2021/06/10 09:51:01;;;;;;;;;;;;;;;17.70;62.03;97209.78;5035994;28;20388;-67
2021/06/10 09:53:29;;;;;;;;;;;;;;;17.69;62.28;97213.44;5036996;28;19933;-67
2021/06/10 09:56:05;;;;;;;;;;;;;;;17.70;62.16;97207.16;5038105;28;19952;-67
2021/06/10 09:58:40;;;;;;;;;;;;;;;17.70;62.11;97217.69;5038358;28;20339;-67
2021/06/10 10:01:14;;;;;;;;;;;;;;;17.69;62.42;97216.06;5041787;28;19931;-66
2021/06/10 10:03:43;;;;;;;;;;;;;;;17.70;62.28;97207.16;5043625;28;19932;-66
2021/06/10 10:06:23;;;;;;;;;;;;;;;17.70;62.09;97212.41;5040812;28;19974;-67
2021/06/10 10:09:01;;;;;;;;;;;;;;;17.72;62.10;97203.53;5042649;28;19925;-67
2021/06/10 10:11:30;;;;;;;;;;;;;;;17.69;62.28;97202.06;5040612;28;20054;-67
2021/06/10 10:13:57;;;;;;;;;;;;;;;17.68;62.19;97200.47;5043546;28;19951;-67
2021/06/10 10:16:25;;;;;;;;;;;;;;;17.69;62.15;97205.53;5042009;28;19925;-67
2021/06/10 10:18:53;;;;;;;;;;;;;;;17.70;62.17;97199.25;5044339;28;19933;-67
2021/06/10 10:21:27;;;;;;;;;;;;;;;17.69;62.36;97197.63;5040107;28;19936;-67
2021/06/10 10:23:59;;;;;;;;;;;;;;;17.69;62.28;97188.91;5044693;28;19926;-67
2021/06/10 10:26:27;;;;;;;;;;;;;;;17.69;62.17;97183.63;5042147;28;19929;-66
2021/06/10 10:28:54;;;;;;;;;;;;;;;17.69;62.28;97173.13;5038978;28;19925;-66
2021/06/10 10:31:20;;;;;;;;;;;;;;;17.73;61.98;97179.59;5038532;28;19925;-66
2021/06/10 10:33:48;;;;;;;;;;;;;;;17.77;62.04;97180.81;5039471;28;19960;-66
2021/06/10 10:36:24;;;;;;;;;;;;;;;17.76;62.12;97173.13;5038046;28;20015;-66
2021/06/10 10:38:57;;;;;;;;;;;;;;;17.78;61.91;97181.63;5036407;28;20281;-66
2021/06/10 10:41:23;;;;;;;;;;;;;;;17.77;61.96;97170.28;5038320;28;19933;-66
2021/06/10 10:44:22;;;;;;;;;;;;;;;17.80;61.74;97169.06;5042502;28;20434;-71
2021/06/10 10:47:09;;;;;;;;;;;;;;;17.81;61.71;97171.50;5042838;28;19956;-67
2021/06/10 10:49:43;;;;;;;;;;;;;;;17.81;61.71;97170.69;5038757;28;20016;-68
2021/06/10 10:52:13;;;;;;;;;;;;;;;17.85;61.57;97171.94;5042208;28;19925;-66
2021/06/10 10:54:39;;;;;;;;;;;;;;;17.86;61.65;97163.84;5034103;28;19925;-66
2021/06/10 10:57:26;;;;;;;;;;;;;;;17.86;61.63;97155.13;5054439;28;19928;-66
2021/06/10 10:59:53;;;;;;;;;;;;;;;17.87;61.49;97156.75;5038687;28;20332;-66
2021/06/10 11:02:20;;;;;;;;;;;;;;;17.85;61.51;97153.53;5038658;28;19929;-66
2021/06/10 11:04:54;;;;;;;;;;;;;;;17.87;61.32;97148.84;5039530;28;19932;-67
2021/06/10 11:07:33;;;;;;;;;;;;;;;17.86;61.60;97148.06;5038404;28;20004;-67
2021/06/10 11:10:00;;;;;;;;;;;;;;;17.88;61.46;97153.09;5041521;28;19925;-66
2021/06/10 11:12:47;;;;;;;;;;;;;;;17.87;61.67;97143.59;5036450;28;19983;-66
2021/06/10 11:15:25;;;;;;;;;;;;;;;17.87;61.78;97143.59;5039744;28;19939;-66
2021/06/10 11:17:59;;;;;;;;;;;;;;;17.87;61.59;97140.97;5043025;28;20408;-66
2021/06/10 11:20:37;;;;;;;;;;;;;;;17.87;61.83;97139.13;5037568;28;20373;-66
2021/06/10 11:23:10;;;;;;;;;;;;;;;17.88;61.89;97134.66;5035833;28;21310;-66
2021/06/10 11:25:41;;;;;;;;;;;;;;;17.87;61.81;97133.88;5036914;28;20580;-66
2021/06/10 11:28:09;;;;;;;;;;;;;;;17.86;61.89;97134.06;5033703;28;19925;-66
2021/06/10 11:30:38;;;;;;;;;;;;;;;17.86;61.67;97126.16;5045629;28;19937;-67
2021/06/10 11:33:12;;;;;;;;;;;;;;;17.87;61.87;97119.91;5049083;28;20547;-66
2021/06/10 11:35:48;;;;;;;;;;;;;;;17.86;62.02;97126.16;5041422;28;19956;-66
2021/06/10 11:38:23;;;;;;;;;;;;;;;17.88;61.69;97126.75;5032577;28;19936;-66
2021/06/10 11:40:50;;;;;;;;;;;;;;;17.90;61.76;97119.47;5038830;28;19932;-66
2021/06/10 11:43:17;;;;;;;;;;;;;;;17.88;61.81;97119.66;5039861;28;19936;-67
2021/06/10 11:45:47;;;;;;;;;;;;;;;17.90;61.70;97119.47;5042816;28;20369;-67
2021/06/10 11:48:14;;;;;;;;;;;;;;;17.88;61.81;97117.03;5041234;28;20012;-67
2021/06/10 11:50:42;;;;;;;;;;;;;;;17.87;61.82;97109.34;5041606;28;19933;-67
2021/06/10 11:53:17;;;;;;;;;;;;;;;17.88;61.93;97108.34;5045338;28;20536;-67
2021/06/10 11:55:44;;;;;;;;;;;;;;;17.89;61.85;97104.69;5035703;28;19936;-66
2021/06/10 11:58:12;;;;;;;;;;;;;;;17.90;61.75;97096.56;5038711;28;19932;-66
2021/06/10 12:00:40;;;;;;;;;;;;;;;17.88;61.94;97092.53;5034962;28;19933;-66
2021/06/10 12:03:10;;;;;;;;;;;;;;;17.87;61.88;97101.47;5036873;28;20021;-66
2021/06/10 12:05:46;;;;;;;;;;;;;;;17.87;61.79;97090.94;5044855;28;20351;-66
2021/06/10 12:08:14;;;;;;;;;;;;;;;17.88;61.89;97095.97;5039931;28;19929;-66
2021/06/10 12:10:46;;;;;;;;;;;;;;;17.89;61.80;97083.63;5038359;28;20361;-66
2021/06/10 12:13:12;;;;;;;;;;;;;;;17.89;61.76;97081.00;5032237;28;19929;-66
2021/06/10 12:15:44;;;;;;;;;;;;;;;17.88;61.74;97087.25;5044917;28;19925;-66
2021/06/10 12:18:12;;;;;;;;;;;;;;;17.89;61.89;97078.38;5040047;28;19940;-66
2021/06/10 12:20:55;;;;;;;;;;;;;;;17.91;61.54;97078.97;5040189;28;19975;-66
2021/06/10 12:23:26;;;;;;;;;;;;;;;17.92;61.44;97069.25;5038338;28;19933;-64
2021/06/10 12:25:55;;;;;;;;;;;;;;;17.92;61.60;97063.97;5039832;28;19940;-67
2021/06/10 12:28:38;;;;;;;;;;;;;;;17.91;61.59;97063.16;5043094;28;19971;-67
2021/06/10 12:31:06;;;;;;;;;;;;;;;17.92;61.61;97072.69;5040504;28;20409;-67
2021/06/10 12:33:33;;;;;;;;;;;;;;;17.93;61.54;97061.13;5037676;28;19925;-67
2021/06/10 12:36:00;;;;;;;;;;;;;;;17.91;61.94;97060.53;5040731;28;19972;-66
2021/06/10 12:38:35;;;;;;;;;;;;;;;17.94;61.63;97048.78;5038551;28;19928;-66
2021/06/10 12:41:12;;;;;;;;;;;;;;;17.96;61.53;97050.19;5046727;28;19997;-66
2021/06/10 12:43:39;;;;;;;;;;;;;;;17.93;61.61;97045.34;5044408;28;20443;-66
2021/06/10 12:46:06;;;;;;;;;;;;;;;17.92;61.71;97041.06;5037706;28;19928;-65
2021/06/10 12:48:53;;;;;;;;;;;;;;;17.89;61.84;97037.03;5032827;28;19929;-65
2021/06/10 12:51:24;;;;;;;;;;;;;;;17.92;61.55;97041.06;5041629;28;19928;-66
2021/06/10 12:53:53;;;;;;;;;;;;;;;17.94;61.64;97039.03;5041718;28;19932;-66